sensor_id;sensor_type;location;lat;lon;timestamp;P1;durP1;ratioP1;P2;durP2;ratioP2
18176;SDS011;9213;50.858;3.964;2023-03-23T00:01:25;5.93;;;5.07;;
18176;SDS011;9213;50.858;3.964;2023-03-23T00:03:55;6.00;;;5.17;;
18176;SDS011;9213;50.858;3.964;2023-03-23T00:06:23;6.30;;;5.63;;
18176;SDS011;9213;50.858;3.964;2023-03-23T00:08:53;8.60;;;5.93;;
18176;SDS011;9213;50.858;3.964;2023-03-23T00:11:25;7.33;;;5.23;;
18176;SDS011;9213;50.858;3.964;2023-03-23T00:13:54;6.07;;;5.47;;
18176;SDS011;9213;50.858;3.964;2023-03-23T00:16:26;7.13;;;6.07;;
18176;SDS011;9213;50.858;3.964;2023-03-23T00:18:55;6.93;;;5.70;;
18176;SDS011;9213;50.858;3.964;2023-03-23T00:21:23;6.77;;;5.60;;
18176;SDS011;9213;50.858;3.964;2023-03-23T00:24:00;6.57;;;5.07;;
18176;SDS011;9213;50.858;3.964;2023-03-23T00:26:32;6.77;;;5.07;;
18176;SDS011;9213;50.858;3.964;2023-03-23T00:29:00;4.83;;;4.40;;
18176;SDS011;9213;50.858;3.964;2023-03-23T00:31:29;5.20;;;4.70;;
18176;SDS011;9213;50.858;3.964;2023-03-23T00:33:58;5.23;;;4.60;;
18176;SDS011;9213;50.858;3.964;2023-03-23T00:36:28;4.87;;;4.37;;
18176;SDS011;9213;50.858;3.964;2023-03-23T00:38:56;5.37;;;4.70;;
18176;SDS011;9213;50.858;3.964;2023-03-23T00:41:26;8.03;;;4.60;;
18176;SDS011;9213;50.858;3.964;2023-03-23T00:43:54;8.67;;;4.67;;
18176;SDS011;9213;50.858;3.964;2023-03-23T00:46:22;5.20;;;4.67;;
18176;SDS011;9213;50.858;3.964;2023-03-23T00:48:49;5.13;;;4.60;;
18176;SDS011;9213;50.858;3.964;2023-03-23T00:51:17;4.27;;;3.87;;
18176;SDS011;9213;50.858;3.964;2023-03-23T00:53:44;5.37;;;3.77;;
18176;SDS011;9213;50.858;3.964;2023-03-23T00:56:12;4.87;;;4.10;;
18176;SDS011;9213;50.858;3.964;2023-03-23T00:58:41;6.93;;;4.33;;
18176;SDS011;9213;50.858;3.964;2023-03-23T01:01:08;4.43;;;3.80;;
18176;SDS011;9213;50.858;3.964;2023-03-23T01:03:36;5.67;;;4.63;;
18176;SDS011;9213;50.858;3.964;2023-03-23T01:06:04;4.50;;;4.10;;
18176;SDS011;9213;50.858;3.964;2023-03-23T01:08:33;5.23;;;4.17;;
18176;SDS011;9213;50.858;3.964;2023-03-23T01:11:05;5.80;;;4.33;;
18176;SDS011;9213;50.858;3.964;2023-03-23T01:13:33;6.13;;;3.83;;
18176;SDS011;9213;50.858;3.964;2023-03-23T01:16:01;4.50;;;4.10;;
18176;SDS011;9213;50.858;3.964;2023-03-23T01:18:29;4.93;;;3.87;;
18176;SDS011;9213;50.858;3.964;2023-03-23T01:20:55;5.03;;;4.03;;
18176;SDS011;9213;50.858;3.964;2023-03-23T01:23:22;7.67;;;3.90;;
18176;SDS011;9213;50.858;3.964;2023-03-23T01:25:49;5.73;;;4.10;;
18176;SDS011;9213;50.858;3.964;2023-03-23T01:28:19;5.17;;;4.17;;
18176;SDS011;9213;50.858;3.964;2023-03-23T01:30:46;6.00;;;3.67;;
18176;SDS011;9213;50.858;3.964;2023-03-23T01:33:14;5.43;;;3.60;;
18176;SDS011;9213;50.858;3.964;2023-03-23T01:35:41;4.10;;;3.70;;
18176;SDS011;9213;50.858;3.964;2023-03-23T01:38:08;4.60;;;3.63;;
18176;SDS011;9213;50.858;3.964;2023-03-23T01:40:35;5.33;;;3.40;;
18176;SDS011;9213;50.858;3.964;2023-03-23T01:43:02;3.90;;;2.90;;
18176;SDS011;9213;50.858;3.964;2023-03-23T01:45:31;3.63;;;3.20;;
18176;SDS011;9213;50.858;3.964;2023-03-23T01:48:09;4.07;;;3.10;;
18176;SDS011;9213;50.858;3.964;2023-03-23T01:50:44;5.90;;;2.90;;
18176;SDS011;9213;50.858;3.964;2023-03-23T01:53:16;3.47;;;2.57;;
18176;SDS011;9213;50.858;3.964;2023-03-23T01:55:45;4.77;;;2.70;;
18176;SDS011;9213;50.858;3.964;2023-03-23T01:58:17;3.67;;;2.80;;
18176;SDS011;9213;50.858;3.964;2023-03-23T02:00:46;2.60;;;2.40;;
18176;SDS011;9213;50.858;3.964;2023-03-23T02:03:14;3.87;;;3.00;;
18176;SDS011;9213;50.858;3.964;2023-03-23T02:05:43;5.83;;;2.60;;
18176;SDS011;9213;50.858;3.964;2023-03-23T02:08:11;5.10;;;2.63;;
18176;SDS011;9213;50.858;3.964;2023-03-23T02:10:40;2.87;;;2.20;;
18176;SDS011;9213;50.858;3.964;2023-03-23T02:13:07;4.33;;;2.37;;
18176;SDS011;9213;50.858;3.964;2023-03-23T02:15:45;5.37;;;2.30;;
18176;SDS011;9213;50.858;3.964;2023-03-23T02:18:34;3.87;;;2.30;;
18176;SDS011;9213;50.858;3.964;2023-03-23T02:21:28;3.80;;;2.10;;
18176;SDS011;9213;50.858;3.964;2023-03-23T02:24:23;2.60;;;1.80;;
18176;SDS011;9213;50.858;3.964;2023-03-23T02:27:17;2.80;;;2.17;;
18176;SDS011;9213;50.858;3.964;2023-03-23T02:32:56;5.47;;;2.17;;
18176;SDS011;9213;50.858;3.964;2023-03-23T02:35:48;5.63;;;2.30;;
18176;SDS011;9213;50.858;3.964;2023-03-23T02:38:20;2.90;;;2.00;;
18176;SDS011;9213;50.858;3.964;2023-03-23T02:40:52;5.20;;;2.33;;
18176;SDS011;9213;50.858;3.964;2023-03-23T02:43:23;2.60;;;1.83;;
18176;SDS011;9213;50.858;3.964;2023-03-23T02:45:53;3.20;;;1.83;;
18176;SDS011;9213;50.858;3.964;2023-03-23T02:48:24;5.43;;;2.00;;
18176;SDS011;9213;50.858;3.964;2023-03-23T02:50:55;3.73;;;2.10;;
18176;SDS011;9213;50.858;3.964;2023-03-23T02:53:23;4.40;;;2.00;;
18176;SDS011;9213;50.858;3.964;2023-03-23T02:55:52;2.87;;;1.60;;
18176;SDS011;9213;50.858;3.964;2023-03-23T02:58:21;5.87;;;2.00;;
18176;SDS011;9213;50.858;3.964;2023-03-23T03:00:49;4.20;;;2.20;;
18176;SDS011;9213;50.858;3.964;2023-03-23T03:03:17;3.73;;;2.10;;
18176;SDS011;9213;50.858;3.964;2023-03-23T03:05:52;5.87;;;2.13;;
18176;SDS011;9213;50.858;3.964;2023-03-23T03:08:27;2.60;;;2.07;;
18176;SDS011;9213;50.858;3.964;2023-03-23T03:11:05;4.20;;;1.70;;
18176;SDS011;9213;50.858;3.964;2023-03-23T03:13:36;4.00;;;2.00;;
18176;SDS011;9213;50.858;3.964;2023-03-23T03:16:13;2.00;;;1.80;;
18176;SDS011;9213;50.858;3.964;2023-03-23T03:18:49;3.87;;;2.73;;
18176;SDS011;9213;50.858;3.964;2023-03-23T03:21:25;3.07;;;1.80;;
18176;SDS011;9213;50.858;3.964;2023-03-23T03:23:55;3.43;;;2.20;;
18176;SDS011;9213;50.858;3.964;2023-03-23T03:26:26;7.97;;;2.20;;
18176;SDS011;9213;50.858;3.964;2023-03-23T03:28:54;2.70;;;2.03;;
18176;SDS011;9213;50.858;3.964;2023-03-23T03:31:21;4.67;;;1.97;;
18176;SDS011;9213;50.858;3.964;2023-03-23T03:33:53;3.40;;;1.83;;
18176;SDS011;9213;50.858;3.964;2023-03-23T03:36:21;3.83;;;2.37;;
18176;SDS011;9213;50.858;3.964;2023-03-23T03:38:52;3.47;;;2.10;;
18176;SDS011;9213;50.858;3.964;2023-03-23T03:41:22;3.53;;;1.80;;
18176;SDS011;9213;50.858;3.964;2023-03-23T03:43:49;6.13;;;2.10;;
18176;SDS011;9213;50.858;3.964;2023-03-23T03:46:16;5.70;;;1.87;;
18176;SDS011;9213;50.858;3.964;2023-03-23T03:48:43;3.73;;;2.00;;
18176;SDS011;9213;50.858;3.964;2023-03-23T03:51:10;6.20;;;1.80;;
18176;SDS011;9213;50.858;3.964;2023-03-23T03:53:37;3.53;;;1.80;;
18176;SDS011;9213;50.858;3.964;2023-03-23T03:56:06;4.20;;;1.83;;
18176;SDS011;9213;50.858;3.964;2023-03-23T03:58:33;6.47;;;1.97;;
18176;SDS011;9213;50.858;3.964;2023-03-23T04:01:01;4.63;;;1.77;;
18176;SDS011;9213;50.858;3.964;2023-03-23T04:03:28;6.23;;;2.20;;
18176;SDS011;9213;50.858;3.964;2023-03-23T04:05:55;6.63;;;1.97;;
18176;SDS011;9213;50.858;3.964;2023-03-23T04:08:24;5.43;;;1.80;;
18176;SDS011;9213;50.858;3.964;2023-03-23T04:10:52;5.43;;;2.10;;
18176;SDS011;9213;50.858;3.964;2023-03-23T04:13:20;4.57;;;1.90;;
18176;SDS011;9213;50.858;3.964;2023-03-23T04:15:48;7.97;;;2.07;;
18176;SDS011;9213;50.858;3.964;2023-03-23T04:18:15;2.87;;;1.90;;
18176;SDS011;9213;50.858;3.964;2023-03-23T04:20:44;4.47;;;2.60;;
18176;SDS011;9213;50.858;3.964;2023-03-23T04:23:13;4.77;;;2.07;;
18176;SDS011;9213;50.858;3.964;2023-03-23T04:25:45;6.87;;;1.60;;
18176;SDS011;9213;50.858;3.964;2023-03-23T04:28:12;4.47;;;1.83;;
18176;SDS011;9213;50.858;3.964;2023-03-23T04:30:40;5.33;;;1.90;;
18176;SDS011;9213;50.858;3.964;2023-03-23T04:33:08;5.23;;;2.63;;
18176;SDS011;9213;50.858;3.964;2023-03-23T04:35:39;3.50;;;1.83;;
18176;SDS011;9213;50.858;3.964;2023-03-23T04:38:07;5.37;;;2.57;;
18176;SDS011;9213;50.858;3.964;2023-03-23T04:40:35;5.60;;;1.93;;
18176;SDS011;9213;50.858;3.964;2023-03-23T04:43:03;4.33;;;1.93;;
18176;SDS011;9213;50.858;3.964;2023-03-23T04:45:31;5.93;;;2.03;;
18176;SDS011;9213;50.858;3.964;2023-03-23T04:48:00;7.50;;;2.30;;
18176;SDS011;9213;50.858;3.964;2023-03-23T04:50:31;6.93;;;2.00;;
18176;SDS011;9213;50.858;3.964;2023-03-23T04:52:59;6.03;;;2.00;;
18176;SDS011;9213;50.858;3.964;2023-03-23T04:55:29;6.63;;;2.10;;
18176;SDS011;9213;50.858;3.964;2023-03-23T04:57:57;4.03;;;1.77;;
18176;SDS011;9213;50.858;3.964;2023-03-23T05:00:26;4.43;;;1.90;;
18176;SDS011;9213;50.858;3.964;2023-03-23T05:02:53;4.30;;;1.80;;
18176;SDS011;9213;50.858;3.964;2023-03-23T05:05:22;4.97;;;2.13;;
18176;SDS011;9213;50.858;3.964;2023-03-23T05:07:50;9.03;;;2.17;;
18176;SDS011;9213;50.858;3.964;2023-03-23T05:10:17;5.63;;;2.20;;
18176;SDS011;9213;50.858;3.964;2023-03-23T05:12:45;4.60;;;2.13;;
18176;SDS011;9213;50.858;3.964;2023-03-23T05:15:12;7.47;;;1.80;;
18176;SDS011;9213;50.858;3.964;2023-03-23T05:17:40;5.67;;;2.20;;
18176;SDS011;9213;50.858;3.964;2023-03-23T05:20:09;7.77;;;2.20;;
18176;SDS011;9213;50.858;3.964;2023-03-23T05:22:39;5.57;;;2.40;;
18176;SDS011;9213;50.858;3.964;2023-03-23T05:25:06;7.37;;;2.40;;
18176;SDS011;9213;50.858;3.964;2023-03-23T05:27:35;5.40;;;2.30;;
18176;SDS011;9213;50.858;3.964;2023-03-23T05:30:03;6.90;;;2.20;;
18176;SDS011;9213;50.858;3.964;2023-03-23T05:32:31;6.97;;;2.50;;
18176;SDS011;9213;50.858;3.964;2023-03-23T05:34:58;6.83;;;2.10;;
18176;SDS011;9213;50.858;3.964;2023-03-23T05:37:28;5.63;;;1.80;;
18176;SDS011;9213;50.858;3.964;2023-03-23T05:39:58;7.10;;;2.40;;
18176;SDS011;9213;50.858;3.964;2023-03-23T05:42:30;3.93;;;1.97;;
18176;SDS011;9213;50.858;3.964;2023-03-23T05:44:57;4.07;;;2.03;;
18176;SDS011;9213;50.858;3.964;2023-03-23T05:47:25;10.60;;;2.00;;
18176;SDS011;9213;50.858;3.964;2023-03-23T05:49:52;4.93;;;2.00;;
18176;SDS011;9213;50.858;3.964;2023-03-23T05:52:19;7.13;;;2.00;;
18176;SDS011;9213;50.858;3.964;2023-03-23T05:54:48;5.60;;;2.20;;
18176;SDS011;9213;50.858;3.964;2023-03-23T05:57:17;6.77;;;1.87;;
18176;SDS011;9213;50.858;3.964;2023-03-23T05:59:46;6.47;;;2.40;;
18176;SDS011;9213;50.858;3.964;2023-03-23T06:02:14;6.33;;;1.90;;
18176;SDS011;9213;50.858;3.964;2023-03-23T06:04:41;5.63;;;2.00;;
18176;SDS011;9213;50.858;3.964;2023-03-23T06:07:08;6.70;;;2.10;;
18176;SDS011;9213;50.858;3.964;2023-03-23T06:09:39;2.20;;;1.17;;
18176;SDS011;9213;50.858;3.964;2023-03-23T06:12:07;1.43;;;0.87;;
18176;SDS011;9213;50.858;3.964;2023-03-23T06:14:36;2.47;;;1.30;;
18176;SDS011;9213;50.858;3.964;2023-03-23T06:17:04;2.20;;;1.00;;
18176;SDS011;9213;50.858;3.964;2023-03-23T06:19:33;1.97;;;1.20;;
18176;SDS011;9213;50.858;3.964;2023-03-23T06:22:00;3.03;;;1.20;;
18176;SDS011;9213;50.858;3.964;2023-03-23T06:24:27;5.67;;;1.53;;
18176;SDS011;9213;50.858;3.964;2023-03-23T06:26:54;5.67;;;1.27;;
18176;SDS011;9213;50.858;3.964;2023-03-23T06:29:21;3.90;;;1.30;;
18176;SDS011;9213;50.858;3.964;2023-03-23T06:31:50;4.73;;;1.30;;
18176;SDS011;9213;50.858;3.964;2023-03-23T06:34:20;6.10;;;1.60;;
18176;SDS011;9213;50.858;3.964;2023-03-23T06:36:48;3.40;;;1.40;;
18176;SDS011;9213;50.858;3.964;2023-03-23T06:39:15;3.20;;;1.47;;
18176;SDS011;9213;50.858;3.964;2023-03-23T06:41:42;4.93;;;1.50;;
18176;SDS011;9213;50.858;3.964;2023-03-23T06:44:09;4.87;;;2.07;;
18176;SDS011;9213;50.858;3.964;2023-03-23T06:46:38;4.10;;;1.50;;
18176;SDS011;9213;50.858;3.964;2023-03-23T06:49:07;8.23;;;1.73;;
18176;SDS011;9213;50.858;3.964;2023-03-23T06:51:35;4.27;;;1.50;;
18176;SDS011;9213;50.858;3.964;2023-03-23T06:54:02;4.07;;;1.30;;
18176;SDS011;9213;50.858;3.964;2023-03-23T06:56:30;3.03;;;1.40;;
18176;SDS011;9213;50.858;3.964;2023-03-23T06:58:57;5.23;;;1.50;;
18176;SDS011;9213;50.858;3.964;2023-03-23T07:01:24;2.27;;;1.27;;
18176;SDS011;9213;50.858;3.964;2023-03-23T07:03:53;5.03;;;1.30;;
18176;SDS011;9213;50.858;3.964;2023-03-23T07:06:23;2.90;;;1.30;;
18176;SDS011;9213;50.858;3.964;2023-03-23T07:08:51;4.37;;;1.40;;
18176;SDS011;9213;50.858;3.964;2023-03-23T07:11:18;2.00;;;1.03;;
18176;SDS011;9213;50.858;3.964;2023-03-23T07:13:45;5.60;;;1.50;;
18176;SDS011;9213;50.858;3.964;2023-03-23T07:16:13;3.73;;;1.60;;
18176;SDS011;9213;50.858;3.964;2023-03-23T07:18:40;2.77;;;1.50;;
18176;SDS011;9213;50.858;3.964;2023-03-23T07:21:07;4.43;;;1.60;;
18176;SDS011;9213;50.858;3.964;2023-03-23T07:23:36;1.80;;;1.43;;
18176;SDS011;9213;50.858;3.964;2023-03-23T07:26:03;3.17;;;2.10;;
18176;SDS011;9213;50.858;3.964;2023-03-23T07:28:30;5.43;;;1.90;;
18176;SDS011;9213;50.858;3.964;2023-03-23T07:30:57;6.43;;;1.90;;
18176;SDS011;9213;50.858;3.964;2023-03-23T07:33:24;4.23;;;1.80;;
18176;SDS011;9213;50.858;3.964;2023-03-23T07:35:52;3.90;;;2.57;;
18176;SDS011;9213;50.858;3.964;2023-03-23T07:38:19;6.40;;;2.40;;
18176;SDS011;9213;50.858;3.964;2023-03-23T07:40:47;3.77;;;2.10;;
18176;SDS011;9213;50.858;3.964;2023-03-23T07:43:14;4.23;;;2.30;;
18176;SDS011;9213;50.858;3.964;2023-03-23T07:45:41;4.90;;;2.53;;
18176;SDS011;9213;50.858;3.964;2023-03-23T07:48:08;4.73;;;2.27;;
18176;SDS011;9213;50.858;3.964;2023-03-23T07:50:35;3.83;;;2.20;;
18176;SDS011;9213;50.858;3.964;2023-03-23T07:53:02;5.73;;;2.00;;
18176;SDS011;9213;50.858;3.964;2023-03-23T07:55:30;3.73;;;2.00;;
18176;SDS011;9213;50.858;3.964;2023-03-23T07:57:58;4.30;;;1.87;;
18176;SDS011;9213;50.858;3.964;2023-03-23T08:00:25;6.07;;;1.70;;
18176;SDS011;9213;50.858;3.964;2023-03-23T08:02:53;3.73;;;1.40;;
18176;SDS011;9213;50.858;3.964;2023-03-23T08:05:21;6.53;;;1.60;;
18176;SDS011;9213;50.858;3.964;2023-03-23T08:07:51;4.23;;;1.67;;
18176;SDS011;9213;50.858;3.964;2023-03-23T08:10:20;2.50;;;1.70;;
18176;SDS011;9213;50.858;3.964;2023-03-23T08:12:50;3.00;;;1.80;;
18176;SDS011;9213;50.858;3.964;2023-03-23T08:15:20;4.20;;;1.80;;
18176;SDS011;9213;50.858;3.964;2023-03-23T08:17:48;2.87;;;1.60;;
18176;SDS011;9213;50.858;3.964;2023-03-23T08:20:16;8.13;;;1.83;;
18176;SDS011;9213;50.858;3.964;2023-03-23T08:22:48;4.00;;;1.37;;
18176;SDS011;9213;50.858;3.964;2023-03-23T08:25:18;6.83;;;2.10;;
18176;SDS011;9213;50.858;3.964;2023-03-23T08:27:45;3.73;;;1.77;;
18176;SDS011;9213;50.858;3.964;2023-03-23T08:30:13;2.30;;;2.00;;
18176;SDS011;9213;50.858;3.964;2023-03-23T08:32:43;5.03;;;2.10;;
18176;SDS011;9213;50.858;3.964;2023-03-23T08:35:12;5.00;;;1.90;;
18176;SDS011;9213;50.858;3.964;2023-03-23T08:37:40;4.63;;;2.20;;
18176;SDS011;9213;50.858;3.964;2023-03-23T08:40:08;7.37;;;2.17;;
18176;SDS011;9213;50.858;3.964;2023-03-23T08:42:36;6.30;;;2.20;;
18176;SDS011;9213;50.858;3.964;2023-03-23T08:45:04;2.87;;;1.70;;
18176;SDS011;9213;50.858;3.964;2023-03-23T08:47:33;4.50;;;1.73;;
18176;SDS011;9213;50.858;3.964;2023-03-23T08:50:01;4.30;;;1.70;;
18176;SDS011;9213;50.858;3.964;2023-03-23T08:52:29;3.23;;;1.70;;
18176;SDS011;9213;50.858;3.964;2023-03-23T08:54:56;3.60;;;1.70;;
18176;SDS011;9213;50.858;3.964;2023-03-23T08:57:23;4.87;;;2.00;;
18176;SDS011;9213;50.858;3.964;2023-03-23T08:59:51;5.00;;;1.90;;
18176;SDS011;9213;50.858;3.964;2023-03-23T09:02:19;4.70;;;2.20;;
18176;SDS011;9213;50.858;3.964;2023-03-23T09:04:48;3.37;;;1.70;;
18176;SDS011;9213;50.858;3.964;2023-03-23T09:07:17;5.33;;;2.10;;
18176;SDS011;9213;50.858;3.964;2023-03-23T09:09:44;5.30;;;2.20;;
18176;SDS011;9213;50.858;3.964;2023-03-23T09:12:11;4.93;;;2.30;;
18176;SDS011;9213;50.858;3.964;2023-03-23T09:14:38;5.07;;;2.33;;
18176;SDS011;9213;50.858;3.964;2023-03-23T09:17:06;6.50;;;2.97;;
18176;SDS011;9213;50.858;3.964;2023-03-23T09:19:34;6.33;;;2.83;;
18176;SDS011;9213;50.858;3.964;2023-03-23T09:22:01;4.47;;;2.20;;
18176;SDS011;9213;50.858;3.964;2023-03-23T09:24:30;4.53;;;2.07;;
18176;SDS011;9213;50.858;3.964;2023-03-23T09:26:57;3.27;;;2.27;;
18176;SDS011;9213;50.858;3.964;2023-03-23T09:29:24;4.57;;;2.53;;
18176;SDS011;9213;50.858;3.964;2023-03-23T09:31:51;3.40;;;1.87;;
18176;SDS011;9213;50.858;3.964;2023-03-23T09:34:19;4.20;;;2.00;;
18176;SDS011;9213;50.858;3.964;2023-03-23T09:36:47;3.30;;;2.00;;
18176;SDS011;9213;50.858;3.964;2023-03-23T09:39:15;3.60;;;2.00;;
18176;SDS011;9213;50.858;3.964;2023-03-23T09:41:53;3.50;;;2.27;;
18176;SDS011;9213;50.858;3.964;2023-03-23T09:44:38;4.33;;;2.00;;
18176;SDS011;9213;50.858;3.964;2023-03-23T09:47:14;7.37;;;2.50;;
18176;SDS011;9213;50.858;3.964;2023-03-23T09:49:50;2.93;;;1.87;;
18176;SDS011;9213;50.858;3.964;2023-03-23T09:52:21;2.63;;;1.90;;
18176;SDS011;9213;50.858;3.964;2023-03-23T09:54:49;2.50;;;1.80;;
18176;SDS011;9213;50.858;3.964;2023-03-23T09:57:22;3.93;;;1.93;;
18176;SDS011;9213;50.858;3.964;2023-03-23T09:59:54;5.03;;;2.07;;
18176;SDS011;9213;50.858;3.964;2023-03-23T10:02:27;2.90;;;1.90;;
18176;SDS011;9213;50.858;3.964;2023-03-23T10:04:58;4.10;;;2.30;;
18176;SDS011;9213;50.858;3.964;2023-03-23T10:07:38;4.73;;;2.37;;
18176;SDS011;9213;50.858;3.964;2023-03-23T10:10:05;4.17;;;2.23;;
18176;SDS011;9213;50.858;3.964;2023-03-23T10:12:42;2.63;;;1.90;;
18176;SDS011;9213;50.858;3.964;2023-03-23T10:15:14;5.13;;;2.50;;
18176;SDS011;9213;50.858;3.964;2023-03-23T10:17:45;3.60;;;2.20;;
18176;SDS011;9213;50.858;3.964;2023-03-23T10:20:21;5.73;;;2.00;;
18176;SDS011;9213;50.858;3.964;2023-03-23T10:22:57;5.23;;;2.80;;
18176;SDS011;9213;50.858;3.964;2023-03-23T10:25:32;3.03;;;2.30;;
18176;SDS011;9213;50.858;3.964;2023-03-23T10:28:04;5.93;;;2.60;;
18176;SDS011;9213;50.858;3.964;2023-03-23T10:30:37;5.30;;;2.23;;
18176;SDS011;9213;50.858;3.964;2023-03-23T10:33:08;3.87;;;2.70;;
18176;SDS011;9213;50.858;3.964;2023-03-23T10:35:42;7.43;;;2.93;;
18176;SDS011;9213;50.858;3.964;2023-03-23T10:38:12;6.30;;;2.93;;
18176;SDS011;9213;50.858;3.964;2023-03-23T10:40:45;6.70;;;2.63;;
18176;SDS011;9213;50.858;3.964;2023-03-23T10:43:18;7.23;;;2.70;;
18176;SDS011;9213;50.858;3.964;2023-03-23T10:45:45;5.27;;;2.70;;
18176;SDS011;9213;50.858;3.964;2023-03-23T10:48:17;6.57;;;2.63;;
18176;SDS011;9213;50.858;3.964;2023-03-23T10:50:49;7.47;;;2.63;;
18176;SDS011;9213;50.858;3.964;2023-03-23T10:53:21;4.73;;;2.40;;
18176;SDS011;9213;50.858;3.964;2023-03-23T10:55:49;6.37;;;2.93;;
18176;SDS011;9213;50.858;3.964;2023-03-23T10:58:23;7.77;;;2.70;;
18176;SDS011;9213;50.858;3.964;2023-03-23T11:00:54;9.33;;;2.97;;
18176;SDS011;9213;50.858;3.964;2023-03-23T11:03:27;10.83;;;3.10;;
18176;SDS011;9213;50.858;3.964;2023-03-23T11:06:03;5.80;;;2.97;;
18176;SDS011;9213;50.858;3.964;2023-03-23T11:08:34;9.47;;;2.93;;
18176;SDS011;9213;50.858;3.964;2023-03-23T11:11:10;5.53;;;2.77;;
18176;SDS011;9213;50.858;3.964;2023-03-23T11:13:43;7.60;;;2.80;;
18176;SDS011;9213;50.858;3.964;2023-03-23T11:16:21;8.93;;;2.60;;
18176;SDS011;9213;50.858;3.964;2023-03-23T11:18:49;11.00;;;2.93;;
18176;SDS011;9213;50.858;3.964;2023-03-23T11:21:17;8.43;;;3.10;;
18176;SDS011;9213;50.858;3.964;2023-03-23T11:23:47;8.73;;;3.10;;
18176;SDS011;9213;50.858;3.964;2023-03-23T11:26:17;4.90;;;2.73;;
18176;SDS011;9213;50.858;3.964;2023-03-23T11:28:51;8.03;;;3.10;;
18176;SDS011;9213;50.858;3.964;2023-03-23T11:31:22;8.80;;;2.97;;
18176;SDS011;9213;50.858;3.964;2023-03-23T11:33:53;7.67;;;2.70;;
18176;SDS011;9213;50.858;3.964;2023-03-23T11:36:28;5.67;;;2.73;;
18176;SDS011;9213;50.858;3.964;2023-03-23T11:38:57;8.90;;;2.65;;
18176;SDS011;9213;50.858;3.964;2023-03-23T11:41:24;6.35;;;2.45;;
18176;SDS011;9213;50.858;3.964;2023-03-23T11:44:02;6.57;;;2.80;;
18176;SDS011;9213;50.858;3.964;2023-03-23T11:46:38;5.90;;;2.20;;
18176;SDS011;9213;50.858;3.964;2023-03-23T11:49:12;6.68;;;2.67;;
18176;SDS011;9213;50.858;3.964;2023-03-23T11:51:49;6.40;;;2.60;;
18176;SDS011;9213;50.858;3.964;2023-03-23T11:54:21;7.13;;;2.63;;
18176;SDS011;9213;50.858;3.964;2023-03-23T11:56:54;4.30;;;2.10;;
18176;SDS011;9213;50.858;3.964;2023-03-23T11:59:28;9.03;;;2.43;;
18176;SDS011;9213;50.858;3.964;2023-03-23T12:02:00;8.37;;;2.37;;
18176;SDS011;9213;50.858;3.964;2023-03-23T12:07:53;6.72;;;2.72;;
18176;SDS011;9213;50.858;3.964;2023-03-23T12:10:30;5.93;;;2.33;;
18176;SDS011;9213;50.858;3.964;2023-03-23T12:13:10;8.70;;;2.70;;
18176;SDS011;9213;50.858;3.964;2023-03-23T12:15:51;5.87;;;2.13;;
18176;SDS011;9213;50.858;3.964;2023-03-23T12:18:24;7.03;;;2.78;;
18176;SDS011;9213;50.858;3.964;2023-03-23T12:21:00;4.37;;;2.37;;
18176;SDS011;9213;50.858;3.964;2023-03-23T12:23:38;6.00;;;2.40;;
18176;SDS011;9213;50.858;3.964;2023-03-23T12:26:13;6.77;;;2.37;;
18176;SDS011;9213;50.858;3.964;2023-03-23T12:28:57;6.93;;;2.30;;
18176;SDS011;9213;50.858;3.964;2023-03-23T12:31:49;5.40;;;2.00;;
18176;SDS011;9213;50.858;3.964;2023-03-23T12:34:39;6.97;;;2.43;;
18176;SDS011;9213;50.858;3.964;2023-03-23T12:37:18;6.33;;;2.07;;
18176;SDS011;9213;50.858;3.964;2023-03-23T12:39:57;5.35;;;1.70;;
18176;SDS011;9213;50.858;3.964;2023-03-23T12:42:39;4.70;;;2.10;;
18176;SDS011;9213;50.858;3.964;2023-03-23T12:45:14;6.55;;;2.10;;
18176;SDS011;9213;50.858;3.964;2023-03-23T12:47:49;5.88;;;2.30;;
18176;SDS011;9213;50.858;3.964;2023-03-23T12:50:24;7.83;;;2.23;;
18176;SDS011;9213;50.858;3.964;2023-03-23T12:52:57;9.63;;;2.40;;
18176;SDS011;9213;50.858;3.964;2023-03-23T12:55:31;5.75;;;2.50;;
18176;SDS011;9213;50.858;3.964;2023-03-23T12:58:03;9.18;;;2.78;;
18176;SDS011;9213;50.858;3.964;2023-03-23T13:00:46;6.43;;;2.22;;
18176;SDS011;9213;50.858;3.964;2023-03-23T13:03:20;6.45;;;2.15;;
18176;SDS011;9213;50.858;3.964;2023-03-23T13:05:57;4.78;;;2.22;;
18176;SDS011;9213;50.858;3.964;2023-03-23T13:08:30;8.43;;;2.33;;
18176;SDS011;9213;50.858;3.964;2023-03-23T13:11:03;6.25;;;2.00;;
18176;SDS011;9213;50.858;3.964;2023-03-23T13:13:40;3.75;;;2.10;;
18176;SDS011;9213;50.858;3.964;2023-03-23T13:16:16;5.35;;;1.98;;
18176;SDS011;9213;50.858;3.964;2023-03-23T13:18:56;8.30;;;2.50;;
18176;SDS011;9213;50.858;3.964;2023-03-23T13:21:30;8.07;;;2.55;;
18176;SDS011;9213;50.858;3.964;2023-03-23T13:23:59;5.93;;;2.20;;
18176;SDS011;9213;50.858;3.964;2023-03-23T13:26:29;8.55;;;2.17;;
18176;SDS011;9213;50.858;3.964;2023-03-23T13:28:57;7.53;;;2.10;;
18176;SDS011;9213;50.858;3.964;2023-03-23T13:31:27;5.13;;;1.90;;
18176;SDS011;9213;50.858;3.964;2023-03-23T13:34:00;6.65;;;2.25;;
18176;SDS011;9213;50.858;3.964;2023-03-23T13:36:35;5.72;;;2.17;;
18176;SDS011;9213;50.858;3.964;2023-03-23T13:39:04;5.65;;;2.20;;
18176;SDS011;9213;50.858;3.964;2023-03-23T13:41:44;8.10;;;2.38;;
18176;SDS011;9213;50.858;3.964;2023-03-23T13:44:17;7.25;;;2.58;;
18176;SDS011;9213;50.858;3.964;2023-03-23T13:46:56;9.38;;;2.45;;
18176;SDS011;9213;50.858;3.964;2023-03-23T13:49:32;8.52;;;2.20;;
18176;SDS011;9213;50.858;3.964;2023-03-23T13:52:01;3.47;;;1.75;;
18176;SDS011;9213;50.858;3.964;2023-03-23T13:54:42;6.15;;;2.53;;
18176;SDS011;9213;50.858;3.964;2023-03-23T13:57:21;4.72;;;2.47;;
18176;SDS011;9213;50.858;3.964;2023-03-23T14:00:09;6.07;;;1.95;;
18176;SDS011;9213;50.858;3.964;2023-03-23T14:02:49;6.38;;;1.80;;
18176;SDS011;9213;50.858;3.964;2023-03-23T14:08:03;3.97;;;1.85;;
18176;SDS011;9213;50.858;3.964;2023-03-23T14:10:41;7.60;;;1.98;;
18176;SDS011;9213;50.858;3.964;2023-03-23T14:13:13;6.60;;;1.85;;
18176;SDS011;9213;50.858;3.964;2023-03-23T14:15:43;4.90;;;2.17;;
18176;SDS011;9213;50.858;3.964;2023-03-23T14:18:19;7.20;;;2.55;;
18176;SDS011;9213;50.858;3.964;2023-03-23T14:20:51;5.47;;;1.98;;
18176;SDS011;9213;50.858;3.964;2023-03-23T14:23:19;6.50;;;2.30;;
18176;SDS011;9213;50.858;3.964;2023-03-23T14:25:54;7.07;;;2.33;;
18176;SDS011;9213;50.858;3.964;2023-03-23T14:28:23;10.02;;;2.75;;
18176;SDS011;9213;50.858;3.964;2023-03-23T14:30:53;5.38;;;2.38;;
18176;SDS011;9213;50.858;3.964;2023-03-23T14:33:22;11.52;;;3.10;;
18176;SDS011;9213;50.858;3.964;2023-03-23T14:35:53;7.65;;;2.50;;
18176;SDS011;9213;50.858;3.964;2023-03-23T14:38:23;8.85;;;2.75;;
18176;SDS011;9213;50.858;3.964;2023-03-23T14:40:59;6.88;;;2.50;;
18176;SDS011;9213;50.858;3.964;2023-03-23T14:43:27;13.93;;;3.35;;
18176;SDS011;9213;50.858;3.964;2023-03-23T14:45:57;8.80;;;2.78;;
18176;SDS011;9213;50.858;3.964;2023-03-23T14:48:26;10.18;;;2.50;;
18176;SDS011;9213;50.858;3.964;2023-03-23T14:50:57;8.88;;;3.10;;
18176;SDS011;9213;50.858;3.964;2023-03-23T14:53:29;6.23;;;2.50;;
18176;SDS011;9213;50.858;3.964;2023-03-23T14:55:59;7.38;;;2.53;;
18176;SDS011;9213;50.858;3.964;2023-03-23T14:58:29;6.38;;;2.20;;
18176;SDS011;9213;50.858;3.964;2023-03-23T15:00:58;5.15;;;2.38;;
18176;SDS011;9213;50.858;3.964;2023-03-23T15:03:27;6.80;;;2.47;;
18176;SDS011;9213;50.858;3.964;2023-03-23T15:06:00;9.33;;;2.67;;
18176;SDS011;9213;50.858;3.964;2023-03-23T15:08:36;9.05;;;2.70;;
18176;SDS011;9213;50.858;3.964;2023-03-23T15:11:05;12.35;;;3.28;;
18176;SDS011;9213;50.858;3.964;2023-03-23T15:13:34;10.90;;;3.13;;
18176;SDS011;9213;50.858;3.964;2023-03-23T15:16:03;8.57;;;2.75;;
18176;SDS011;9213;50.858;3.964;2023-03-23T15:18:34;10.00;;;2.60;;
18176;SDS011;9213;50.858;3.964;2023-03-23T15:21:11;10.33;;;3.13;;
18176;SDS011;9213;50.858;3.964;2023-03-23T15:23:46;11.38;;;3.42;;
18176;SDS011;9213;50.858;3.964;2023-03-23T15:26:24;6.63;;;3.22;;
18176;SDS011;9213;50.858;3.964;2023-03-23T15:31:46;7.80;;;3.58;;
18176;SDS011;9213;50.858;3.964;2023-03-23T15:34:25;11.27;;;3.35;;